Measham, United Kingdom
Current Conditions -  °F | °C
As of 1:20 AM on Thursday 27 Nov 2014 (Local Time) from EGNX Reporting Station
Moderate Fog Moderate Fog  
Wind Chill: 45°   Ceiling: Unl
Heat Index: 45°   Visibility: 0.12mi
Dew Point: 45°   Wind: 2mph
Humidity: 100%   Direction: 10°N
Pressure: 29.71"   Gusts: NA
Location:  52.71°N, 1.51°W
Report Text: EGNX 270120Z 01002KT 0200 R27/0400 FG VV/// 07/07 Q1006
Loading
Personal Weather Stations






























Interactive Weather Map New forecast layout! Learn more

10-Day Weather Forecast

Advertisements
Track Severe Weather on mobile